createdAt,value
2023-01-07T00:00:45.158Z,99898.00
2023-01-07T00:03:12.583Z,99910.00
2023-01-07T00:05:47.999Z,99908.00
2023-01-07T00:08:16.885Z,99908.00
2023-01-07T00:10:43.875Z,99901.00
2023-01-07T00:13:17.550Z,99894.00
2023-01-07T00:15:44.429Z,99907.00
2023-01-07T00:18:19.498Z,99903.00
2023-01-07T00:20:47.160Z,99891.00
2023-01-07T00:23:21.138Z,99895.00
2023-01-07T00:25:55.480Z,99897.00
2023-01-07T00:28:23.577Z,99885.00
2023-01-07T00:30:58.674Z,99891.00
2023-01-07T00:33:25.652Z,99889.00
2023-01-07T00:36:10.129Z,99871.00
2023-01-07T00:38:38.419Z,99884.00
2023-01-07T00:41:12.630Z,99890.00
2023-01-07T00:43:39.732Z,99857.00
2023-01-07T00:46:16.000Z,99889.00
2023-01-07T00:48:43.972Z,99880.00
2023-01-07T00:51:21.609Z,99887.00
2023-01-07T00:53:48.693Z,99879.00
2023-01-07T00:56:17.534Z,99879.00
2023-01-07T00:58:51.537Z,99881.00
2023-01-07T01:01:18.805Z,99865.00
2023-01-07T01:03:52.765Z,99865.00
2023-01-07T01:06:21.143Z,99871.00
2023-01-07T01:08:55.044Z,99863.00
2023-01-07T01:11:21.945Z,99857.00
2023-01-07T01:13:56.194Z,99860.00
2023-01-07T01:16:23.209Z,99862.00
2023-01-07T01:18:57.541Z,99851.00
2023-01-07T01:21:25.829Z,99855.00
2023-01-07T01:23:59.912Z,99861.00
2023-01-07T01:26:27.365Z,99838.00
2023-01-07T01:28:54.310Z,99855.00
2023-01-07T01:31:29.239Z,99862.00
2023-01-07T01:33:56.724Z,99858.00
2023-01-07T01:36:30.943Z,99860.00
2023-01-07T01:38:59.438Z,99862.00
2023-01-07T01:41:34.141Z,99856.00
2023-01-07T01:44:02.308Z,99855.00
2023-01-07T01:46:48.713Z,99860.00
2023-01-07T01:49:28.442Z,99860.00
2023-01-07T01:52:25.187Z,99872.00
2023-01-07T01:54:56.760Z,99859.00
2023-01-07T01:57:31.161Z,99869.00
2023-01-07T01:59:59.378Z,99864.00
2023-01-07T02:02:41.129Z,99871.00
2023-01-07T02:05:09.694Z,99857.00
2023-01-07T02:07:43.396Z,99857.00
2023-01-07T02:10:21.443Z,99852.00
2023-01-07T02:13:23.219Z,99847.00
2023-01-07T02:16:19.139Z,99862.00
2023-01-07T02:19:08.181Z,99859.00
2023-01-07T02:22:11.265Z,99855.00
2023-01-07T02:25:20.199Z,99855.00
2023-01-07T02:28:34.241Z,99845.00
2023-01-07T02:31:45.330Z,99844.00
2023-01-07T02:34:46.215Z,99844.00
2023-01-07T02:37:27.881Z,99836.00
2023-01-07T02:40:26.187Z,99841.00
2023-01-07T02:43:18.692Z,99831.00
2023-01-07T02:46:19.209Z,99821.00
2023-01-07T02:48:46.296Z,99820.00
2023-01-07T02:51:19.238Z,99818.00
2023-01-07T02:53:46.933Z,99808.00
2023-01-07T02:56:38.229Z,99809.00
2023-01-07T02:59:17.297Z,99819.00
2023-01-07T03:02:12.267Z,99821.00
2023-01-07T03:05:03.200Z,99800.00
2023-01-07T03:08:11.279Z,99813.00
2023-01-07T03:10:41.237Z,99817.00
2023-01-07T03:13:24.250Z,99821.00
2023-01-07T03:16:02.533Z,99813.00
2023-01-07T03:18:37.249Z,99818.00
2023-01-07T03:21:07.193Z,99810.00
2023-01-07T03:23:35.783Z,99809.00
2023-01-07T03:26:11.216Z,99804.00
2023-01-07T03:28:38.143Z,99792.00
2023-01-07T03:31:11.263Z,99807.00
2023-01-07T03:34:06.313Z,99811.00
2023-01-07T03:36:51.291Z,99796.00
2023-01-07T03:39:18.182Z,99807.00
2023-01-07T03:41:45.096Z,99807.00
2023-01-07T03:44:18.238Z,99813.00
2023-01-07T03:46:45.125Z,99808.00
2023-01-07T03:49:18.244Z,99797.00
2023-01-07T03:51:45.199Z,99795.00
2023-01-07T03:54:18.231Z,99798.00
2023-01-07T03:56:45.105Z,99793.00
2023-01-07T03:59:11.979Z,99803.00
2023-01-07T04:01:45.348Z,99786.00
2023-01-07T04:04:19.323Z,99792.00
2023-01-07T04:06:46.583Z,99781.00
2023-01-07T04:09:13.828Z,99788.00
2023-01-07T04:11:48.225Z,99753.00
2023-01-07T04:14:15.159Z,99771.00
2023-01-07T04:16:48.338Z,99782.00
2023-01-07T04:19:15.233Z,99760.00
2023-01-07T04:21:42.174Z,99763.00
2023-01-07T04:24:15.286Z,99754.00
2023-01-07T04:26:48.287Z,99757.00
2023-01-07T04:29:22.283Z,99778.00
2023-01-07T04:31:49.771Z,99775.00
2023-01-07T04:34:23.316Z,99766.00
2023-01-07T04:36:50.164Z,99773.00
2023-01-07T04:39:23.297Z,99761.00
2023-01-07T04:41:50.237Z,99788.00
2023-01-07T04:44:23.250Z,99774.00
2023-01-07T04:46:50.225Z,99761.00
2023-01-07T04:49:17.436Z,99789.00
2023-01-07T04:51:51.279Z,99787.00
2023-01-07T04:54:18.196Z,99792.00
2023-01-07T04:56:51.360Z,99788.00
2023-01-07T04:59:18.264Z,99782.00
2023-01-07T05:01:51.434Z,99792.00
2023-01-07T05:04:18.538Z,99792.00
2023-01-07T05:06:52.270Z,99794.00
2023-01-07T05:09:25.309Z,99789.00
2023-01-07T05:11:52.205Z,99785.00
2023-01-07T05:14:25.309Z,99785.00
2023-01-07T05:16:52.192Z,99777.00
2023-01-07T05:19:25.315Z,99785.00
2023-01-07T05:21:52.242Z,99780.00
2023-01-07T05:24:25.321Z,99781.00
2023-01-07T05:26:52.191Z,99782.00
2023-01-07T05:29:25.285Z,99772.00
2023-01-07T05:31:52.171Z,99771.00
2023-01-07T05:34:25.270Z,99785.00
2023-01-07T05:36:58.333Z,99771.00
2023-01-07T05:39:25.589Z,99760.00
2023-01-07T05:41:52.774Z,99766.00
2023-01-07T05:44:26.470Z,99763.00
2023-01-07T05:46:53.759Z,99772.00
2023-01-07T05:49:27.353Z,99781.00
2023-01-07T05:52:03.888Z,99760.00
2023-01-07T05:54:37.287Z,99769.00
2023-01-07T05:57:10.333Z,99767.00
2023-01-07T05:59:37.263Z,99783.00
2023-01-07T06:02:11.317Z,99789.00
2023-01-07T06:04:38.221Z,99787.00
2023-01-07T06:07:05.198Z,99779.00
2023-01-07T06:09:38.333Z,99778.00
2023-01-07T06:12:15.102Z,99778.00
2023-01-07T06:14:42.063Z,99764.00
2023-01-07T06:17:09.075Z,99770.00
2023-01-07T06:19:42.337Z,99781.00
2023-01-07T06:22:09.303Z,99786.00
2023-01-07T06:24:36.236Z,99768.00
2023-01-07T06:27:09.359Z,99766.00
2023-01-07T06:29:43.251Z,99789.00
2023-01-07T06:32:17.354Z,99777.00
2023-01-07T06:34:50.405Z,99782.00
2023-01-07T06:37:17.416Z,99778.00
2023-01-07T06:39:51.317Z,99771.00
2023-01-07T06:42:18.289Z,99787.00
2023-01-07T06:44:53.486Z,99788.00
2023-01-07T06:47:20.527Z,99771.00
2023-01-07T06:49:54.361Z,99756.00
2023-01-07T06:52:21.368Z,99750.00
2023-01-07T06:54:48.823Z,99741.00
2023-01-07T06:57:22.406Z,99764.00
2023-01-07T06:59:49.424Z,99766.00
2023-01-07T07:02:31.505Z,99780.00
2023-01-07T07:04:58.659Z,99773.00
2023-01-07T07:07:32.347Z,99793.00
2023-01-07T07:09:59.336Z,99792.00
2023-01-07T07:12:32.342Z,99785.00
2023-01-07T07:14:59.264Z,99778.00
2023-01-07T07:17:32.421Z,99801.00
2023-01-07T07:19:59.707Z,99804.00
2023-01-07T07:22:26.946Z,99803.00
2023-01-07T07:25:20.384Z,99779.00
2023-01-07T07:27:54.390Z,99770.00
2023-01-07T07:30:46.517Z,99767.00
2023-01-07T07:33:20.073Z,99788.00
2023-01-07T07:35:54.492Z,99764.00
2023-01-07T07:38:26.176Z,99778.00
2023-01-07T07:40:53.488Z,99773.00
2023-01-07T07:43:27.429Z,99782.00
2023-01-07T07:45:54.668Z,99765.00
2023-01-07T07:48:21.590Z,99775.00
2023-01-07T07:50:57.356Z,99776.00
2023-01-07T07:53:24.255Z,99769.00
2023-01-07T07:55:57.405Z,99802.00
2023-01-07T07:58:24.648Z,99795.00
2023-01-07T08:00:51.598Z,99794.00
2023-01-07T08:03:25.510Z,99806.00
2023-01-07T08:05:52.461Z,99783.00
2023-01-07T08:08:25.408Z,99793.00
2023-01-07T08:10:55.536Z,99788.00
2023-01-07T08:13:22.755Z,99780.00
2023-01-07T08:15:56.458Z,99773.00
2023-01-07T08:18:23.500Z,99799.00
2023-01-07T08:20:57.431Z,99773.00
2023-01-07T08:23:24.351Z,99763.00
2023-01-07T08:25:57.392Z,99775.00
2023-01-07T08:28:33.424Z,99794.00
2023-01-07T08:31:07.405Z,99808.00
2023-01-07T08:33:41.441Z,99801.00
2023-01-07T08:36:21.498Z,99813.00
2023-01-07T08:38:58.457Z,99820.00
2023-01-07T08:41:25.726Z,99806.00
2023-01-07T08:44:00.506Z,99784.00
2023-01-07T08:46:27.531Z,99782.00
2023-01-07T08:49:01.367Z,99807.00
2023-01-07T08:51:34.380Z,99803.00
2023-01-07T08:54:08.069Z,99826.00
2023-01-07T08:56:41.386Z,99804.00
2023-01-07T08:59:08.450Z,99792.00
2023-01-07T09:01:37.851Z,99790.00
2023-01-07T09:04:11.399Z,99795.00
2023-01-07T09:06:44.456Z,99822.00
2023-01-07T09:09:11.458Z,99791.00
2023-01-07T09:11:45.421Z,99823.00
2023-01-07T09:14:19.440Z,99820.00
2023-01-07T09:16:47.242Z,99784.00
2023-01-07T09:19:20.413Z,99817.00
2023-01-07T09:21:47.415Z,99817.00
2023-01-07T09:24:20.435Z,99821.00
2023-01-07T09:26:47.421Z,99801.00
2023-01-07T09:29:20.403Z,99820.00
2023-01-07T09:31:47.427Z,99834.00
2023-01-07T09:34:20.484Z,99796.00
2023-01-07T09:36:54.450Z,99807.00
2023-01-07T09:39:21.399Z,99813.00
2023-01-07T09:42:19.481Z,99824.00
2023-01-07T09:44:58.343Z,99829.00
2023-01-07T09:47:33.439Z,99793.00
2023-01-07T09:50:05.954Z,99811.00
2023-01-07T09:52:48.438Z,99803.00
2023-01-07T09:55:32.900Z,99831.00
2023-01-07T09:58:06.422Z,99837.00
2023-01-07T10:00:33.971Z,99832.00
2023-01-07T10:03:31.534Z,99837.00
2023-01-07T10:06:13.409Z,99828.00
2023-01-07T10:09:20.502Z,99829.00
2023-01-07T10:12:06.088Z,99829.00
2023-01-07T10:14:52.528Z,99807.00
2023-01-07T10:17:57.946Z,99825.00
2023-01-07T10:20:51.451Z,99817.00
2023-01-07T10:23:25.604Z,99784.00
2023-01-07T10:26:01.497Z,99785.00
2023-01-07T10:28:49.034Z,99782.00
2023-01-07T10:31:27.161Z,99781.00
2023-01-07T10:34:07.276Z,99799.00
2023-01-07T10:36:40.487Z,99794.00
2023-01-07T10:39:38.895Z,99786.00
2023-01-07T10:43:10.569Z,99767.00
2023-01-07T10:46:18.337Z,99786.00
2023-01-07T10:53:38.044Z,99752.00
2023-01-07T10:56:41.423Z,99783.00
2023-01-07T10:59:23.118Z,99771.00
2023-01-07T11:02:03.668Z,99730.00
2023-01-07T11:04:31.191Z,99737.00
2023-01-07T11:07:13.529Z,99731.00
2023-01-07T11:09:49.184Z,99750.00
2023-01-07T11:13:28.910Z,99762.00
2023-01-07T11:16:07.645Z,99724.00
2023-01-07T11:19:15.300Z,99702.00
2023-01-07T11:22:02.889Z,99710.00
2023-01-07T11:24:35.997Z,99704.00
2023-01-07T11:27:23.529Z,99732.00
2023-01-07T11:30:06.133Z,99722.00
2023-01-07T11:33:00.160Z,99685.00
2023-01-07T11:35:37.454Z,99696.00
2023-01-07T11:38:11.551Z,99709.00
2023-01-07T11:40:45.467Z,99672.00
2023-01-07T11:43:22.687Z,99711.00
2023-01-07T11:46:19.242Z,99674.00
2023-01-07T11:48:55.511Z,99692.00
2023-01-07T11:51:29.671Z,99660.00
2023-01-07T11:54:04.891Z,99675.00
2023-01-07T11:56:33.374Z,99660.00
2023-01-07T11:59:19.611Z,99678.00
2023-01-07T12:01:55.277Z,99663.00
2023-01-07T12:04:38.475Z,99673.00
2023-01-07T12:07:20.509Z,99649.00
2023-01-07T12:09:47.426Z,99661.00
2023-01-07T12:12:34.754Z,99650.00
2023-01-07T12:15:31.522Z,99621.00
2023-01-07T12:18:15.527Z,99657.00
2023-01-07T12:21:22.563Z,99641.00
2023-01-07T12:24:43.476Z,99649.00
2023-01-07T12:27:43.560Z,99635.00
2023-01-07T12:30:55.534Z,99636.00
2023-01-07T12:33:40.232Z,99636.00
2023-01-07T12:36:58.526Z,99610.00
2023-01-07T12:39:38.638Z,99629.00
2023-01-07T12:42:14.491Z,99622.00
2023-01-07T12:44:47.617Z,99613.00
2023-01-07T12:47:59.510Z,99612.00
2023-01-07T12:50:51.477Z,99618.00
2023-01-07T12:53:26.836Z,99604.00
2023-01-07T12:56:32.474Z,99601.00
2023-01-07T12:59:03.146Z,99605.00
2023-01-07T13:01:57.620Z,99595.00
2023-01-07T13:04:55.488Z,99608.00
2023-01-07T13:08:04.079Z,99603.00
2023-01-07T13:10:49.749Z,99590.00
2023-01-07T13:13:32.165Z,99605.00
2023-01-07T13:16:07.017Z,99602.00
2023-01-07T13:18:46.820Z,99587.00
2023-01-07T13:21:16.364Z,99597.00
2023-01-07T13:24:55.522Z,99567.00
2023-01-07T13:27:25.084Z,99593.00
2023-01-07T13:30:28.613Z,99596.00
2023-01-07T13:33:05.465Z,99590.00
2023-01-07T13:36:31.526Z,99592.00
2023-01-07T13:39:16.583Z,99592.00
2023-01-07T13:42:25.020Z,99598.00
2023-01-07T13:45:06.685Z,99594.00
2023-01-07T13:47:57.644Z,99581.00
2023-01-07T13:50:44.576Z,99574.00
2023-01-07T13:53:14.512Z,99587.00
2023-01-07T13:55:49.571Z,99582.00
2023-01-07T13:58:31.628Z,99592.00
2023-01-07T14:01:17.678Z,99592.00
2023-01-07T14:03:57.534Z,99580.00
2023-01-07T14:06:37.553Z,99586.00
2023-01-07T14:09:07.513Z,99590.00
2023-01-07T14:11:40.553Z,99584.00
2023-01-07T14:14:35.192Z,99579.00
2023-01-07T14:17:29.602Z,99586.00
2023-01-07T14:20:29.007Z,99581.00
2023-01-07T14:23:34.579Z,99580.00
2023-01-07T14:26:43.593Z,99584.00
2023-01-07T14:29:43.550Z,99592.00
2023-01-07T14:32:28.553Z,99593.00
2023-01-07T14:35:02.414Z,99592.00
2023-01-07T14:37:38.556Z,99593.00
2023-01-07T14:40:33.628Z,99584.00
2023-01-07T14:43:07.541Z,99573.00
2023-01-07T14:45:37.497Z,99596.00
2023-01-07T14:48:16.591Z,99588.00
2023-01-07T14:51:12.583Z,99598.00
2023-01-07T14:54:14.013Z,99591.00
2023-01-07T14:57:31.605Z,99588.00
2023-01-07T15:00:28.619Z,99591.00
2023-01-07T15:03:19.232Z,99588.00
2023-01-07T15:06:25.583Z,99589.00
2023-01-07T15:09:14.443Z,99598.00
2023-01-07T15:11:48.573Z,99598.00
2023-01-07T15:14:49.147Z,99597.00
2023-01-07T15:17:22.625Z,99593.00
2023-01-07T15:19:49.508Z,99589.00
2023-01-07T15:22:52.576Z,99591.00
2023-01-07T15:25:39.701Z,99596.00
2023-01-07T15:28:27.581Z,99600.00
2023-01-07T15:31:16.026Z,99592.00
2023-01-07T15:33:56.140Z,99593.00
2023-01-07T15:36:24.551Z,99600.00
2023-01-07T15:39:01.625Z,99570.00
2023-01-07T15:41:39.922Z,99579.00
2023-01-07T15:44:33.601Z,99590.00
2023-01-07T15:47:00.789Z,99588.00
2023-01-07T15:49:37.637Z,99596.00
2023-01-07T15:52:23.111Z,99589.00
2023-01-07T15:54:56.601Z,99591.00
2023-01-07T15:57:30.092Z,99585.00
2023-01-07T16:00:04.605Z,99582.00
2023-01-07T16:02:34.838Z,99545.00
2023-01-07T16:05:14.060Z,99567.00
2023-01-07T16:07:59.166Z,99552.00
2023-01-07T16:10:31.811Z,99577.00
2023-01-07T16:13:21.218Z,99569.00
2023-01-07T16:15:55.616Z,99569.00
2023-01-07T16:18:30.262Z,99573.00
2023-01-07T16:21:09.588Z,99552.00
2023-01-07T16:23:43.995Z,99555.00
2023-01-07T16:26:17.133Z,99548.00
2023-01-07T16:29:25.688Z,99546.00
2023-01-07T16:31:53.111Z,99548.00
2023-01-07T16:34:34.491Z,99579.00
2023-01-07T16:37:01.765Z,99577.00
2023-01-07T16:39:45.605Z,99567.00
2023-01-07T16:42:20.640Z,99560.00
2023-01-07T16:44:53.971Z,99557.00
2023-01-07T16:47:22.515Z,99565.00
2023-01-07T16:50:21.625Z,99561.00
2023-01-07T16:52:56.196Z,99560.00
2023-01-07T16:55:51.668Z,99564.00
2023-01-07T16:58:51.615Z,99557.00
2023-01-07T17:01:36.849Z,99560.00
2023-01-07T17:04:08.721Z,99565.00
2023-01-07T17:06:47.677Z,99554.00
2023-01-07T17:09:37.937Z,99555.00
2023-01-07T17:12:12.672Z,99546.00
2023-01-07T17:14:49.703Z,99552.00
2023-01-07T17:17:37.677Z,99556.00
2023-01-07T17:20:23.757Z,99549.00
2023-01-07T17:22:50.786Z,99537.00
2023-01-07T17:25:31.704Z,99556.00
2023-01-07T17:28:06.843Z,99548.00
2023-01-07T17:30:45.054Z,99524.00
2023-01-07T17:33:16.295Z,99527.00
2023-01-07T17:35:53.759Z,99524.00
2023-01-07T17:38:20.833Z,99552.00
2023-01-07T17:40:54.781Z,99527.00
2023-01-07T17:43:27.415Z,99536.00
2023-01-07T17:45:54.524Z,99526.00
2023-01-07T17:48:27.692Z,99518.00
2023-01-07T17:51:00.828Z,99522.00
2023-01-07T17:53:32.740Z,99524.00
2023-01-07T17:56:09.678Z,99527.00
2023-01-07T17:58:37.240Z,99521.00
2023-01-07T18:01:19.527Z,99531.00
2023-01-07T18:03:47.880Z,99546.00
2023-01-07T18:06:29.682Z,99534.00
2023-01-07T18:08:56.651Z,99540.00
2023-01-07T18:11:31.822Z,99540.00
2023-01-07T18:13:58.996Z,99553.00
2023-01-07T18:16:26.217Z,99543.00
2023-01-07T18:18:59.729Z,99547.00
2023-01-07T18:21:26.663Z,99555.00
2023-01-07T18:24:27.995Z,99554.00
2023-01-07T18:26:56.661Z,99533.00
2023-01-07T18:29:34.645Z,99554.00
2023-01-07T18:32:02.174Z,99553.00
2023-01-07T18:34:38.818Z,99538.00
2023-01-07T18:37:06.263Z,99534.00
2023-01-07T18:39:34.683Z,99519.00
2023-01-07T18:42:08.760Z,99526.00
2023-01-07T18:44:36.220Z,99541.00
2023-01-07T18:47:12.859Z,99510.00
2023-01-07T18:50:00.914Z,99551.00
2023-01-07T18:52:30.516Z,99547.00
2023-01-07T18:55:06.313Z,99536.00
2023-01-07T18:57:36.635Z,99544.00
2023-01-07T19:00:13.802Z,99512.00
2023-01-07T19:02:40.732Z,99530.00
2023-01-07T19:05:07.982Z,99532.00
2023-01-07T19:07:41.693Z,99539.00
2023-01-07T19:10:09.258Z,99526.00
2023-01-07T19:12:36.294Z,99530.00
2023-01-07T19:15:16.771Z,99525.00
2023-01-07T19:17:43.792Z,99536.00
2023-01-07T19:20:18.782Z,99536.00
2023-01-07T19:22:45.721Z,99551.00
2023-01-07T19:25:18.783Z,99518.00
2023-01-07T19:27:52.753Z,99527.00
2023-01-07T19:30:19.698Z,99517.00
2023-01-07T19:32:46.624Z,99508.00
2023-01-07T19:35:19.772Z,99534.00
2023-01-07T19:37:46.650Z,99530.00
2023-01-07T19:40:19.744Z,99539.00
2023-01-07T19:42:46.689Z,99529.00
2023-01-07T19:45:19.826Z,99551.00
2023-01-07T19:47:46.737Z,99528.00
2023-01-07T19:50:13.729Z,99544.00
2023-01-07T19:52:46.719Z,99518.00
2023-01-07T19:55:13.705Z,99521.00
2023-01-07T19:57:46.750Z,99507.00
2023-01-07T20:00:14.072Z,99521.00
2023-01-07T20:02:47.841Z,99502.00
2023-01-07T20:05:15.286Z,99525.00
2023-01-07T20:07:42.244Z,99533.00
2023-01-07T20:10:15.788Z,99521.00
2023-01-07T20:12:42.757Z,99512.00
2023-01-07T20:15:10.170Z,99519.00
2023-01-07T20:17:43.759Z,99512.00
2023-01-07T20:20:10.679Z,99515.00
2023-01-07T20:22:37.610Z,99541.00
2023-01-07T20:25:11.765Z,99491.00
2023-01-07T20:27:38.716Z,99505.00
2023-01-07T20:30:13.803Z,99520.00
2023-01-07T20:32:40.837Z,99517.00
2023-01-07T20:35:08.546Z,99520.00
2023-01-07T20:37:41.810Z,99510.00
2023-01-07T20:40:09.537Z,99505.00
2023-01-07T20:42:42.843Z,99502.00
2023-01-07T20:45:10.419Z,99532.00
2023-01-07T20:47:43.838Z,99502.00
2023-01-07T20:50:10.834Z,99492.00
2023-01-07T20:52:44.791Z,99490.00
2023-01-07T20:55:11.806Z,99492.00
2023-01-07T20:57:44.812Z,99486.00
2023-01-07T21:00:18.830Z,99504.00
2023-01-07T21:02:45.821Z,99502.00
2023-01-07T21:05:12.716Z,99488.00
2023-01-07T21:07:45.784Z,99490.00
2023-01-07T21:10:19.820Z,99499.00
2023-01-07T21:12:47.458Z,99497.00
2023-01-07T21:15:21.888Z,99488.00
2023-01-07T21:17:48.868Z,99492.00
2023-01-07T21:20:30.792Z,99488.00
2023-01-07T21:22:57.768Z,99487.00
2023-01-07T21:25:24.783Z,99495.00
2023-01-07T21:27:57.809Z,99482.00
2023-01-07T21:30:24.748Z,99478.00
2023-01-07T21:32:51.790Z,99473.00
2023-01-07T21:35:24.839Z,99461.00
2023-01-07T21:38:01.818Z,99456.00
2023-01-07T21:40:28.718Z,99470.00
2023-01-07T21:43:01.869Z,99463.00
2023-01-07T21:45:35.894Z,99467.00
2023-01-07T21:48:02.865Z,99481.00
2023-01-07T21:50:35.824Z,99472.00
2023-01-07T21:53:02.794Z,99466.00
2023-01-07T21:55:35.877Z,99463.00
2023-01-07T21:58:02.861Z,99476.00
2023-01-07T22:00:35.836Z,99494.00
2023-01-07T22:03:02.726Z,99491.00
2023-01-07T22:05:29.730Z,99485.00
2023-01-07T22:08:05.754Z,99450.00
2023-01-07T22:10:32.661Z,99454.00
2023-01-07T22:13:05.866Z,99464.00
2023-01-07T22:15:32.842Z,99489.00
2023-01-07T22:17:59.771Z,99478.00
2023-01-07T22:20:32.933Z,99456.00
2023-01-07T22:23:07.056Z,99465.00
2023-01-07T22:25:40.869Z,99465.00
2023-01-07T22:28:07.833Z,99482.00
2023-01-07T22:30:34.800Z,99477.00
2023-01-07T22:33:07.871Z,99472.00
2023-01-07T22:35:34.999Z,99459.00
2023-01-07T22:38:08.878Z,99480.00
2023-01-07T22:40:36.128Z,99478.00
2023-01-07T22:43:05.108Z,99466.00
2023-01-07T22:45:51.990Z,99464.00
2023-01-07T22:48:27.850Z,99458.00
2023-01-07T22:51:03.854Z,99462.00
2023-01-07T22:53:30.788Z,99476.00
2023-01-07T22:55:58.324Z,99493.00
2023-01-07T22:58:35.172Z,99462.00
2023-01-07T23:01:09.586Z,99480.00
2023-01-07T23:03:37.101Z,99489.00
2023-01-07T23:06:10.962Z,99476.00
2023-01-07T23:08:37.888Z,99479.00
2023-01-07T23:11:05.109Z,99476.00
2023-01-07T23:13:38.867Z,99468.00
2023-01-07T23:16:14.562Z,99471.00
2023-01-07T23:18:41.705Z,99477.00
2023-01-07T23:21:15.834Z,99466.00
2023-01-07T23:23:42.911Z,99468.00
2023-01-07T23:26:20.878Z,99465.00
2023-01-07T23:28:47.783Z,99460.00
2023-01-07T23:31:15.235Z,99442.00
2023-01-07T23:34:00.913Z,99409.00
2023-01-07T23:36:38.913Z,99408.00
2023-01-07T23:39:06.831Z,99417.00
2023-01-07T23:41:44.124Z,99430.00
2023-01-07T23:44:11.052Z,99420.00
2023-01-07T23:46:46.457Z,99433.00
2023-01-07T23:49:13.555Z,99414.00
2023-01-07T23:51:46.864Z,99422.00
2023-01-07T23:54:14.593Z,99423.00
2023-01-07T23:56:48.477Z,99411.00
2023-01-07T23:59:15.892Z,99417.00
